createdAt,value
2018-05-01T00:01:34.741Z,98439.11
2018-05-01T00:04:02.338Z,98440.98
2018-05-01T00:06:29.965Z,98444.73
2018-05-01T00:08:57.608Z,98447.78
2018-05-01T00:11:25.291Z,98442.54
2018-05-01T00:13:53.047Z,98446.42
2018-05-01T00:16:20.689Z,98440.77
2018-05-01T00:18:48.272Z,98441.09
2018-05-01T00:21:15.906Z,98440.77
2018-05-01T00:23:45.632Z,98437.43
2018-05-01T00:26:13.223Z,98434.62
2018-05-01T00:28:40.878Z,98432.20
2018-05-01T00:31:08.539Z,98432.62
2018-05-01T00:33:36.197Z,98437.11
2018-05-01T00:36:03.967Z,98438.76
2018-05-01T00:38:31.612Z,98430.39
2018-05-01T00:40:59.211Z,98435.11
2018-05-01T00:43:26.856Z,98429.58
2018-05-01T00:45:54.437Z,98424.56
2018-05-01T00:48:22.021Z,98422.50
2018-05-01T00:50:49.952Z,98416.10
2018-05-01T00:53:17.536Z,98414.97
2018-05-01T00:55:45.176Z,98411.61
2018-05-01T00:58:12.908Z,98415.78
2018-05-01T01:00:40.536Z,98413.67
2018-05-01T01:03:08.199Z,98410.22
2018-05-01T01:05:35.845Z,98411.05
2018-05-01T01:08:03.443Z,98409.88
2018-05-01T01:10:31.064Z,98404.73
2018-05-01T01:12:58.848Z,98406.19
2018-05-01T01:15:26.491Z,98403.28
2018-05-01T01:17:54.065Z,98402.64
2018-05-01T01:20:21.730Z,98400.86
2018-05-01T01:22:49.365Z,98400.34
2018-05-01T01:25:16.963Z,98400.86
2018-05-01T01:27:44.617Z,98392.09
2018-05-01T01:30:12.269Z,98394.90
2018-05-01T01:32:39.935Z,98392.37
2018-05-01T01:35:07.095Z,98390.59
2018-05-01T01:37:34.147Z,98389.95
2018-05-01T01:40:01.185Z,98383.67
2018-05-01T01:42:28.320Z,98388.55
2018-05-01T01:44:55.345Z,98384.05
2018-05-01T01:47:22.392Z,98380.68
2018-05-01T01:49:49.571Z,98374.64
2018-05-01T01:52:16.728Z,98377.45
2018-05-01T01:54:43.742Z,98376.70
2018-05-01T01:57:10.822Z,98375.56
2018-05-01T01:59:38.528Z,98379.92
2018-05-01T02:02:05.559Z,98373.66
2018-05-01T02:04:32.681Z,98381.17
2018-05-01T02:06:59.699Z,98383.88
2018-05-01T02:09:26.808Z,98381.59
2018-05-01T02:11:53.884Z,98382.63
2018-05-01T02:14:20.904Z,98386.45
2018-05-01T02:16:47.933Z,98384.47
2018-05-01T02:19:15.028Z,98388.73
2018-05-01T02:21:42.060Z,98387.98
2018-05-01T02:24:09.692Z,98381.61
2018-05-01T02:26:36.925Z,98380.44
2018-05-01T02:29:04.021Z,98380.64
2018-05-01T02:31:31.059Z,98388.04
2018-05-01T02:33:59.200Z,98392.95
2018-05-01T02:36:26.228Z,98400.75
2018-05-01T02:38:53.262Z,98396.78
2018-05-01T02:41:20.525Z,98391.67
2018-05-01T02:43:47.471Z,98391.67
2018-05-01T02:46:14.508Z,98391.34
2018-05-01T02:48:41.598Z,98392.80
2018-05-01T02:51:08.633Z,98397.41
2018-05-01T02:53:35.832Z,98403.86
2018-05-01T02:56:03.017Z,98404.36
2018-05-01T02:58:30.057Z,98405.70
2018-05-01T03:00:57.084Z,98406.07
2018-05-01T03:03:24.268Z,98406.70
2018-05-01T03:05:51.364Z,98408.36
2018-05-01T03:08:18.453Z,98413.28
2018-05-01T03:10:45.647Z,98420.60
2018-05-01T03:13:12.683Z,98419.63
2018-05-01T03:15:40.512Z,98423.68
2018-05-01T03:18:07.739Z,98429.61
2018-05-01T03:20:34.861Z,98432.13
2018-05-01T03:23:01.945Z,98432.45
2018-05-01T03:25:29.636Z,98437.38
2018-05-01T03:27:56.664Z,98434.46
2018-05-01T03:30:23.683Z,98436.28
2018-05-01T03:32:50.856Z,98438.37
2018-05-01T03:35:17.892Z,98444.64
2018-05-01T03:37:44.919Z,98447.50
2018-05-01T03:40:12.124Z,98448.03
2018-05-01T03:42:39.221Z,98453.03
2018-05-01T03:45:06.308Z,98455.11
2018-05-01T03:47:34.031Z,98465.96
2018-05-01T03:50:01.073Z,98464.71
2018-05-01T03:52:28.104Z,98469.22
2018-05-01T03:54:55.315Z,98465.72
2018-05-01T03:57:22.367Z,98474.21
2018-05-01T03:59:49.401Z,98479.58
2018-05-01T04:02:16.486Z,98481.22
2018-05-01T04:04:43.541Z,98479.70
2018-05-01T04:07:10.566Z,98486.41
2018-05-01T04:09:38.113Z,98483.34
2018-05-01T04:12:05.229Z,98495.05
2018-05-01T04:14:32.266Z,98497.08
2018-05-01T04:16:59.453Z,98500.92
2018-05-01T04:19:26.566Z,98497.89
2018-05-01T04:21:53.589Z,98506.78
2018-05-01T04:24:20.755Z,98509.91
2018-05-01T04:26:47.791Z,98506.78
2018-05-01T04:29:14.825Z,98501.58
2018-05-01T04:31:41.903Z,98501.58
2018-05-01T04:34:08.994Z,98489.68
2018-05-01T04:36:36.032Z,98490.75
2018-05-01T04:39:03.122Z,98493.66
2018-05-01T04:41:30.222Z,98492.10
2018-05-01T04:43:57.268Z,98493.69
2018-05-01T04:46:25.409Z,98494.30
2018-05-01T04:48:52.445Z,98490.90
2018-05-01T04:51:19.550Z,98487.03
2018-05-01T04:53:46.694Z,98490.36
2018-05-01T04:56:14.029Z,98488.70
2018-05-01T04:58:41.160Z,98495.39
2018-05-01T05:01:08.399Z,98496.55
2018-05-01T05:03:35.419Z,98502.28
2018-05-01T05:06:02.454Z,98506.67
2018-05-01T05:08:29.560Z,98499.44
2018-05-01T05:10:56.596Z,98499.75
2018-05-01T05:13:23.627Z,98500.70
2018-05-01T05:15:50.819Z,98502.79
2018-05-01T05:18:17.849Z,98507.64
2018-05-01T05:20:44.892Z,98506.40
2018-05-01T05:23:12.163Z,98511.55
2018-05-01T05:25:39.244Z,98507.41
2018-05-01T05:28:06.296Z,98504.02
2018-05-01T05:30:33.417Z,98499.03
2018-05-01T05:33:00.533Z,98496.65
2018-05-01T05:35:27.628Z,98502.27
2018-05-01T05:37:54.813Z,98498.99
2018-05-01T05:40:21.912Z,98504.92
2018-05-01T05:42:48.991Z,98504.83
2018-05-01T05:45:16.153Z,98505.24
2018-05-01T05:47:43.244Z,98507.09
2018-05-01T05:50:10.284Z,98509.05
2018-05-01T05:52:37.390Z,98509.75
2018-05-01T05:55:04.455Z,98507.63
2018-05-01T05:57:32.804Z,98513.41
2018-05-01T05:59:59.993Z,98517.68
2018-05-01T06:02:27.031Z,98522.20
2018-05-01T06:04:54.082Z,98528.67
2018-05-01T06:07:21.188Z,98531.45
2018-05-01T06:09:48.224Z,98530.94
2018-05-01T06:12:15.271Z,98527.82
2018-05-01T06:14:42.454Z,98522.91
2018-05-01T06:17:10.403Z,98526.78
2018-05-01T06:19:37.510Z,98530.86
2018-05-01T06:22:04.824Z,98530.24
2018-05-01T06:24:31.941Z,98528.66
2018-05-01T06:26:59.068Z,98528.67
2018-05-01T06:29:26.203Z,98533.39
2018-05-01T06:31:53.273Z,98527.09
2018-05-01T06:34:20.444Z,98534.87
2018-05-01T06:36:47.548Z,98524.41
2018-05-01T06:39:14.608Z,98530.72
2018-05-01T06:41:41.653Z,98530.23
2018-05-01T06:44:08.949Z,98532.66
2018-05-01T06:46:36.007Z,98534.45
2018-05-01T06:49:03.043Z,98534.80
2018-05-01T06:51:31.200Z,98530.19
2018-05-01T06:53:58.296Z,98531.73
2018-05-01T06:56:25.405Z,98532.98
2018-05-01T06:58:52.753Z,98527.06
2018-05-01T07:01:19.848Z,98522.64
2018-05-01T07:03:46.907Z,98520.92
2018-05-01T07:06:14.049Z,98523.20
2018-05-01T07:08:41.106Z,98518.52
2018-05-01T07:11:08.217Z,98514.62
2018-05-01T07:13:35.388Z,98523.07
2018-05-01T07:16:02.439Z,98525.49
2018-05-01T07:18:29.480Z,98532.82
2018-05-01T07:20:56.649Z,98539.45
2018-05-01T07:23:23.744Z,98531.77
2018-05-01T07:25:50.850Z,98542.52
2018-05-01T07:28:17.931Z,98541.45
2018-05-01T07:30:45.445Z,98541.87
2018-05-01T07:33:12.484Z,98543.58
2018-05-01T07:35:39.784Z,98559.08
2018-05-01T07:38:06.816Z,98557.17
2018-05-01T07:40:33.852Z,98553.55
2018-05-01T07:43:01.011Z,98554.63
2018-05-01T07:45:28.161Z,98557.20
2018-05-01T07:47:55.233Z,98555.98
2018-05-01T07:50:22.317Z,98552.52
2018-05-01T07:52:49.353Z,98554.39
2018-05-01T07:55:16.420Z,98545.29
2018-05-01T07:57:43.528Z,98551.91
2018-05-01T08:00:10.769Z,98546.32
2018-05-01T08:02:37.820Z,98553.43
2018-05-01T08:05:04.972Z,98551.45
2018-05-01T08:07:32.020Z,98543.35
2018-05-01T08:09:59.133Z,98551.08
2018-05-01T08:12:26.326Z,98548.11
2018-05-01T08:14:53.428Z,98550.56
2018-05-01T08:17:20.478Z,98550.23
2018-05-01T08:19:47.556Z,98549.91
2018-05-01T08:22:14.588Z,98555.51
2018-05-01T08:24:41.627Z,98549.19
2018-05-01T08:27:08.707Z,98549.96
2018-05-01T08:29:36.684Z,98544.50
2018-05-01T08:32:03.926Z,98540.41
2018-05-01T08:34:31.089Z,98537.05
2018-05-01T08:36:58.132Z,98535.33
2018-05-01T08:39:25.815Z,98540.72
2018-05-01T08:41:52.985Z,98532.89
2018-05-01T08:44:20.025Z,98539.77
2018-05-01T08:46:47.122Z,98535.14
2018-05-01T08:49:14.318Z,98535.84
2018-05-01T08:51:41.355Z,98541.06
2018-05-01T08:54:08.409Z,98538.32
2018-05-01T08:56:35.517Z,98536.97
2018-05-01T08:59:02.583Z,98537.07
2018-05-01T09:01:29.878Z,98537.91
2018-05-01T09:03:57.081Z,98534.77
2018-05-01T09:06:24.232Z,98536.80
2018-05-01T09:08:51.396Z,98529.30
2018-05-01T09:11:18.604Z,98521.73
2018-05-01T09:13:46.199Z,98521.55
2018-05-01T09:16:13.862Z,98522.32
2018-05-01T09:18:41.000Z,98523.71
2018-05-01T09:21:08.097Z,98520.83
2018-05-01T09:23:35.124Z,98516.16
2018-05-01T09:26:02.232Z,98518.48
2018-05-01T09:28:29.337Z,98511.59
2018-05-01T09:30:56.376Z,98513.47
2018-05-01T09:33:23.567Z,98512.27
2018-05-01T09:35:50.616Z,98515.07
2018-05-01T09:38:17.653Z,98502.86
2018-05-01T09:40:44.755Z,98508.80
2018-05-01T09:43:11.802Z,98495.86
2018-05-01T09:45:38.860Z,98497.06
2018-05-01T09:48:06.045Z,98498.52
2018-05-01T09:50:33.150Z,98496.88
2018-05-01T09:53:00.833Z,98495.66
2018-05-01T09:55:28.562Z,98489.99
2018-05-01T09:57:56.184Z,98493.05
2018-05-01T10:00:24.673Z,98492.61
2018-05-01T10:02:52.577Z,98485.44
2018-05-01T10:05:20.168Z,98490.40
2018-05-01T10:07:47.756Z,98497.06
2018-05-01T10:10:15.503Z,98495.11
2018-05-01T10:12:43.192Z,98485.59
2018-05-01T10:15:10.808Z,98481.67
2018-05-01T10:17:38.443Z,98482.97
2018-05-01T10:20:06.032Z,98488.90
2018-05-01T10:22:33.688Z,98484.70
2018-05-01T10:25:01.350Z,98478.97
2018-05-01T10:27:28.972Z,98480.91
2018-05-01T10:29:56.616Z,98482.17
2018-05-01T10:32:24.345Z,98481.61
2018-05-01T10:34:52.002Z,98479.97
2018-05-01T10:37:19.633Z,98475.97
2018-05-01T10:39:47.438Z,98481.98
2018-05-01T10:42:15.041Z,98475.30
2018-05-01T10:44:42.637Z,98477.85
2018-05-01T10:47:10.405Z,98482.86
2018-05-01T10:49:38.047Z,98478.24
2018-05-01T10:52:05.652Z,98482.81
2018-05-01T10:54:33.355Z,98493.72
2018-05-01T10:57:00.945Z,98482.81
2018-05-01T10:59:28.552Z,98482.80
2018-05-01T11:01:56.252Z,98483.61
2018-05-01T11:04:23.979Z,98482.05
2018-05-01T11:06:51.592Z,98475.77
2018-05-01T11:09:19.271Z,98482.84
2018-05-01T11:11:46.938Z,98475.47
2018-05-01T11:14:14.481Z,98480.41
2018-05-01T11:16:42.313Z,98471.17
2018-05-01T11:19:09.909Z,98475.16
2018-05-01T11:21:37.501Z,98474.83
2018-05-01T11:24:05.244Z,98475.90
2018-05-01T11:26:32.913Z,98473.11
2018-05-01T11:29:00.572Z,98475.72
2018-05-01T11:31:28.240Z,98476.17
2018-05-01T11:33:55.857Z,98467.63
2018-05-01T11:36:23.442Z,98459.91
2018-05-01T11:38:51.095Z,98468.23
2018-05-01T11:41:18.700Z,98462.44
2018-05-01T11:43:46.295Z,98460.13
2018-05-01T11:46:14.181Z,98460.28
2018-05-01T11:48:41.821Z,98455.34
2018-05-01T11:51:09.432Z,98448.37
2018-05-01T11:53:37.247Z,98450.69
2018-05-01T11:56:04.867Z,98449.67
2018-05-01T11:58:32.548Z,98449.71
2018-05-01T12:01:00.294Z,98447.71
2018-05-01T12:03:27.880Z,98439.41
2018-05-01T12:05:55.561Z,98435.09
2018-05-01T12:08:23.268Z,98437.01
2018-05-01T12:10:50.866Z,98431.39
2018-05-01T12:13:18.456Z,98431.42
2018-05-01T12:15:46.120Z,98430.45
2018-05-01T12:18:13.736Z,98426.41
2018-05-01T12:20:41.411Z,98427.96
2018-05-01T12:23:09.147Z,98414.45
2018-05-01T12:25:36.744Z,98415.44
2018-05-01T12:28:04.402Z,98414.06
2018-05-01T12:30:32.131Z,98408.87
2018-05-01T12:32:59.789Z,98401.63
2018-05-01T12:35:27.518Z,98391.92
2018-05-01T12:37:55.212Z,98392.84
2018-05-01T12:40:22.832Z,98390.58
2018-05-01T12:42:50.418Z,98385.90
2018-05-01T12:47:57.104Z,98384.39
2018-05-01T12:50:24.760Z,98372.42
2018-05-01T12:52:52.340Z,98378.41
2018-05-01T12:55:19.917Z,98376.73
2018-05-01T12:57:47.607Z,98371.62
2018-05-01T13:00:15.195Z,98369.95
2018-05-01T13:02:42.780Z,98362.23
2018-05-01T13:05:10.453Z,98368.01
2018-05-01T13:07:39.036Z,98357.56
2018-05-01T13:10:06.651Z,98368.33
2018-05-01T13:12:34.512Z,98360.48
2018-05-01T13:15:02.064Z,98355.85
2018-05-01T13:17:29.644Z,98359.38
2018-05-01T13:19:57.429Z,98350.86
2018-05-01T13:22:25.066Z,98341.98
2018-05-01T13:24:52.673Z,98339.27
2018-05-01T13:27:20.423Z,98338.00
2018-05-01T13:29:47.975Z,98333.34
2018-05-01T13:32:15.613Z,98336.91
2018-05-01T13:34:43.243Z,98341.19
2018-05-01T13:37:10.893Z,98331.41
2018-05-01T13:39:38.480Z,98336.30
2018-05-01T13:42:06.172Z,98338.09
2018-05-01T13:44:33.746Z,98334.20
2018-05-01T13:47:01.352Z,98333.00
2018-05-01T13:49:29.149Z,98335.81
2018-05-01T13:51:56.783Z,98334.88
2018-05-01T13:54:24.443Z,98341.15
2018-05-01T13:56:52.137Z,98338.38
2018-05-01T13:59:19.721Z,98335.19
2018-05-01T14:01:47.361Z,98337.62
2018-05-01T14:04:15.033Z,98342.64
2018-05-01T14:06:42.641Z,98341.60
2018-05-01T14:09:10.352Z,98340.25
2018-05-01T14:11:38.100Z,98344.61
2018-05-01T14:14:05.754Z,98335.50
2018-05-01T14:16:33.335Z,98335.22
2018-05-01T14:19:01.057Z,98332.09
2018-05-01T14:21:28.651Z,98331.73
2018-05-01T14:23:56.240Z,98325.38
2018-05-01T14:26:23.912Z,98329.86
2018-05-01T14:28:51.488Z,98332.93
2018-05-01T14:31:19.076Z,98328.77
2018-05-01T14:33:46.684Z,98324.51
2018-05-01T14:36:14.255Z,98325.78
2018-05-01T14:38:41.830Z,98322.92
2018-05-01T14:41:09.616Z,98325.83
2018-05-01T14:43:37.215Z,98317.66
2018-05-01T14:46:04.780Z,98314.91
2018-05-01T14:48:32.409Z,98317.02
2018-05-01T14:50:59.999Z,98320.91
2018-05-01T14:53:27.592Z,98319.91
2018-05-01T14:55:55.911Z,98310.81
2018-05-01T14:58:23.493Z,98308.87
2018-05-01T15:00:51.070Z,98320.23
2018-05-01T15:03:18.740Z,98314.75
2018-05-01T15:05:46.356Z,98316.84
2018-05-01T15:08:14.852Z,98320.58
2018-05-01T15:10:43.953Z,98315.48
2018-05-01T15:13:11.559Z,98319.11
2018-05-01T15:15:39.174Z,98310.10
2018-05-01T15:18:06.827Z,98315.53
2018-05-01T15:20:34.427Z,98303.91
2018-05-01T15:23:02.560Z,98299.53
2018-05-01T15:25:30.310Z,98297.22
2018-05-01T15:27:57.888Z,98293.78
2018-05-01T15:30:25.564Z,98299.42
2018-05-01T15:32:53.216Z,98295.00
2018-05-01T15:35:20.854Z,98288.95
2018-05-01T15:37:48.516Z,98289.25
2018-05-01T15:40:16.240Z,98290.22
2018-05-01T15:42:43.915Z,98296.58
2018-05-01T15:45:11.528Z,98292.86
2018-05-01T15:47:39.240Z,98293.56
2018-05-01T15:50:06.821Z,98288.75
2018-05-01T15:52:34.397Z,98288.32
2018-05-01T15:55:02.088Z,98286.81
2018-05-01T15:57:29.683Z,98283.91
2018-05-01T15:59:57.343Z,98285.61
2018-05-01T16:02:24.984Z,98279.66
2018-05-01T16:04:52.560Z,98283.09
2018-05-01T16:07:20.136Z,98275.11
2018-05-01T16:09:47.865Z,98270.53
2018-05-01T16:12:15.550Z,98275.65
2018-05-01T16:14:43.197Z,98276.61
2018-05-01T16:17:10.909Z,98280.20
2018-05-01T16:19:38.545Z,98282.55
2018-05-01T16:22:06.128Z,98284.34
2018-05-01T16:24:33.823Z,98288.47
2018-05-01T16:27:01.403Z,98288.20
2018-05-01T16:29:29.003Z,98292.74
2018-05-01T16:31:56.739Z,98285.01
2018-05-01T16:34:24.351Z,98288.30
2018-05-01T16:36:51.948Z,98290.21
2018-05-01T16:39:19.672Z,98285.77
2018-05-01T16:41:47.319Z,98289.36
2018-05-01T16:44:14.962Z,98286.85
2018-05-01T16:46:42.693Z,98291.80
2018-05-01T16:49:10.272Z,98294.11
2018-05-01T16:51:37.852Z,98300.56
2018-05-01T16:54:05.582Z,98291.20
2018-05-01T16:56:33.185Z,98292.42
2018-05-01T16:59:00.845Z,98290.06
2018-05-01T17:01:28.564Z,98297.44
2018-05-01T17:03:56.306Z,98296.41
2018-05-01T17:06:23.897Z,98295.55
2018-05-01T17:08:51.626Z,98295.89
2018-05-01T17:11:19.225Z,98304.48
2018-05-01T17:13:46.967Z,98302.31
2018-05-01T17:16:14.687Z,98304.30
2018-05-01T17:18:42.282Z,98307.22
2018-05-01T17:21:09.873Z,98313.08
2018-05-01T17:23:37.608Z,98314.27
2018-05-01T17:26:05.216Z,98315.46
2018-05-01T17:28:32.860Z,98314.14
2018-05-01T17:31:00.960Z,98320.25
2018-05-01T17:33:28.553Z,98323.64
2018-05-01T17:35:56.210Z,98320.00
2018-05-01T17:38:23.863Z,98329.02
2018-05-01T17:40:51.522Z,98330.31
2018-05-01T17:43:19.141Z,98333.95
2018-05-01T17:45:46.777Z,98335.61
2018-05-01T17:48:14.368Z,98338.19
2018-05-01T17:50:43.673Z,98341.03
2018-05-01T17:53:11.419Z,98339.00
2018-05-01T17:55:39.732Z,98346.78
2018-05-01T17:58:07.347Z,98339.97
2018-05-01T18:00:35.165Z,98348.03
2018-05-01T18:03:02.759Z,98356.59
2018-05-01T18:05:30.399Z,98350.25
2018-05-01T18:07:59.033Z,98356.67
2018-05-01T18:10:26.725Z,98367.19
2018-05-01T18:12:54.311Z,98370.03
2018-05-01T18:15:21.991Z,98379.74
2018-05-01T18:17:49.629Z,98380.62
2018-05-01T18:20:17.272Z,98378.51
2018-05-01T18:22:44.920Z,98384.91
2018-05-01T18:25:12.576Z,98394.43
2018-05-01T18:27:40.231Z,98393.36
2018-05-01T18:30:07.924Z,98393.27
2018-05-01T18:32:35.508Z,98395.42
2018-05-01T18:35:03.161Z,98405.92
2018-05-01T18:37:30.780Z,98406.02
2018-05-01T18:39:58.391Z,98403.87
2018-05-01T18:42:25.972Z,98407.36
2018-05-01T18:44:53.707Z,98407.68
2018-05-01T18:47:21.319Z,98407.47
2018-05-01T18:49:48.896Z,98411.25
2018-05-01T18:52:16.536Z,98418.02
2018-05-01T18:54:44.124Z,98413.57
2018-05-01T18:57:11.754Z,98422.66
2018-05-01T18:59:39.528Z,98424.41
2018-05-01T19:02:07.193Z,98421.22
2018-05-01T19:04:34.852Z,98428.00
2018-05-01T19:07:02.539Z,98430.83
2018-05-01T19:09:30.120Z,98434.11
2018-05-01T19:11:57.743Z,98442.72
2018-05-01T19:14:25.395Z,98444.52
2018-05-01T19:16:53.272Z,98440.16
2018-05-01T19:19:20.841Z,98446.78
2018-05-01T19:21:48.491Z,98445.87
2018-05-01T19:24:16.168Z,98441.20
2018-05-01T19:26:43.808Z,98449.50
2018-05-01T19:29:11.472Z,98454.45
2018-05-01T19:31:39.047Z,98454.91
2018-05-01T19:34:06.645Z,98458.86
2018-05-01T19:36:34.984Z,98465.05
2018-05-01T19:39:03.595Z,98460.83
2018-05-01T19:41:31.188Z,98461.85
2018-05-01T19:43:58.869Z,98465.20
2018-05-01T19:46:26.452Z,98464.20
2018-05-01T19:48:54.102Z,98466.59
2018-05-01T19:51:21.809Z,98468.83
2018-05-01T19:53:49.379Z,98461.67
2018-05-01T19:56:17.087Z,98466.00
2018-05-01T19:58:44.716Z,98468.16
2018-05-01T20:01:12.297Z,98468.34
2018-05-01T20:03:39.905Z,98468.52
2018-05-01T20:06:07.630Z,98467.22
2018-05-01T20:08:35.453Z,98470.89
2018-05-01T20:11:03.192Z,98474.22
2018-05-01T20:13:30.885Z,98474.46
2018-05-01T20:15:58.460Z,98474.00
2018-05-01T20:18:26.139Z,98483.22
2018-05-01T20:20:53.914Z,98483.66
2018-05-01T20:23:21.487Z,98476.16
2018-05-01T20:25:49.104Z,98477.31
2018-05-01T20:28:16.808Z,98478.13
2018-05-01T20:30:44.440Z,98467.66
2018-05-01T20:33:12.063Z,98472.58
2018-05-01T20:35:39.710Z,98466.64
2018-05-01T20:38:07.361Z,98459.60
2018-05-01T20:40:34.964Z,98466.97
2018-05-01T20:43:02.686Z,98457.66
2018-05-01T20:45:30.344Z,98459.66
2018-05-01T20:47:57.936Z,98461.67
2018-05-01T20:50:25.580Z,98463.52
2018-05-01T20:52:53.219Z,98470.57
2018-05-01T20:55:20.867Z,98472.30
2018-05-01T20:57:48.587Z,98477.47
2018-05-01T21:00:16.220Z,98473.19
2018-05-01T21:02:44.812Z,98473.66
2018-05-01T21:05:12.513Z,98473.41
2018-05-01T21:07:40.237Z,98469.73
2018-05-01T21:10:07.808Z,98470.11
2018-05-01T21:12:35.460Z,98470.02
2018-05-01T21:15:03.076Z,98473.02
2018-05-01T21:17:30.653Z,98474.91
2018-05-01T21:19:58.427Z,98475.97
2018-05-01T21:22:26.016Z,98481.27
2018-05-01T21:24:53.603Z,98478.53
2018-05-01T21:27:21.316Z,98480.95
2018-05-01T21:29:48.900Z,98484.52
2018-05-01T21:32:16.484Z,98484.02
2018-05-01T21:34:44.879Z,98474.48
2018-05-01T21:37:12.465Z,98475.81
2018-05-01T21:39:40.053Z,98473.17
2018-05-01T21:42:07.688Z,98473.96
2018-05-01T21:44:35.311Z,98468.13
2018-05-01T21:47:02.917Z,98471.74
2018-05-01T21:49:30.609Z,98474.63
2018-05-01T21:51:58.261Z,98470.97
2018-05-01T21:54:25.892Z,98462.36
2018-05-01T21:56:53.538Z,98466.78
2018-05-01T21:59:21.113Z,98470.31
2018-05-01T22:01:48.700Z,98478.39
2018-05-01T22:04:16.360Z,98472.54
2018-05-01T22:06:44.057Z,98477.55
2018-05-01T22:09:11.626Z,98473.58
2018-05-01T22:11:39.404Z,98476.83
2018-05-01T22:14:07.058Z,98477.33
2018-05-01T22:16:34.693Z,98478.52
2018-05-01T22:19:02.411Z,98482.54
2018-05-01T22:21:30.035Z,98486.24
2018-05-01T22:23:57.686Z,98484.60
2018-05-01T22:26:25.404Z,98491.97
2018-05-01T22:28:53.023Z,98496.81
2018-05-01T22:31:20.677Z,98491.48
2018-05-01T22:33:48.353Z,98489.85
2018-05-01T22:36:15.950Z,98489.53
2018-05-01T22:38:43.528Z,98481.41
2018-05-01T22:41:11.246Z,98480.86
2018-05-01T22:43:39.548Z,98479.19
2018-05-01T22:46:07.184Z,98475.76
2018-05-01T22:48:34.917Z,98477.94
2018-05-01T22:51:02.511Z,98480.98
2018-05-01T22:53:30.166Z,98468.44
2018-05-01T22:55:57.828Z,98462.53
2018-05-01T22:58:26.324Z,98467.03
2018-05-01T23:00:53.908Z,98476.32
2018-05-01T23:03:21.645Z,98478.48
2018-05-01T23:05:49.233Z,98471.61
2018-05-01T23:08:16.886Z,98468.05
2018-05-01T23:10:44.524Z,98474.09
2018-05-01T23:13:12.114Z,98476.81
2018-05-01T23:15:39.710Z,98471.77
2018-05-01T23:18:07.438Z,98469.36
2018-05-01T23:20:35.020Z,98456.07
2018-05-01T23:23:02.720Z,98461.68
2018-05-01T23:25:30.340Z,98460.19
2018-05-01T23:27:57.984Z,98457.23
2018-05-01T23:30:25.584Z,98446.45
2018-05-01T23:32:53.216Z,98441.10
2018-05-01T23:35:20.789Z,98445.87
2018-05-01T23:37:48.425Z,98443.86
2018-05-01T23:40:16.175Z,98429.23
2018-05-01T23:42:43.755Z,98431.37
2018-05-01T23:45:12.157Z,98430.25
2018-05-01T23:47:39.881Z,98430.50
2018-05-01T23:50:07.470Z,98431.00
2018-05-01T23:52:35.053Z,98431.05
2018-05-01T23:55:02.704Z,98432.17
2018-05-01T23:57:30.770Z,98432.18
2018-05-01T23:59:58.445Z,98436.19
